createdAt,value
2022-11-25T00:01:27.362Z,55.72
2022-11-25T00:03:56.771Z,57.30
2022-11-25T00:06:29.879Z,59.17
2022-11-25T00:09:04.063Z,59.56
2022-11-25T00:11:34.295Z,60.25
2022-11-25T00:14:02.117Z,61.97
2022-11-25T00:16:29.895Z,67.41
2022-11-25T00:18:58.589Z,70.86
2022-11-25T00:21:28.889Z,68.31
2022-11-25T00:24:02.597Z,64.19
2022-11-25T00:26:33.073Z,62.02
2022-11-25T00:29:04.122Z,59.07
2022-11-25T00:31:34.533Z,56.01
2022-11-25T00:34:03.278Z,56.50
2022-11-25T00:36:33.966Z,57.87
2022-11-25T00:39:09.505Z,59.32
2022-11-25T00:41:56.773Z,60.22
2022-11-25T00:44:37.847Z,60.90
2022-11-25T00:47:06.402Z,66.90
2022-11-25T00:49:34.323Z,69.54
2022-11-25T00:52:02.275Z,66.89
2022-11-25T00:54:30.102Z,61.35
2022-11-25T00:56:58.989Z,55.97
2022-11-25T00:59:28.815Z,53.23
2022-11-25T01:01:57.129Z,54.67
2022-11-25T01:04:25.339Z,55.13
2022-11-25T01:06:56.842Z,57.84
2022-11-25T01:09:24.590Z,58.14
2022-11-25T01:11:53.070Z,59.18
2022-11-25T01:14:22.375Z,60.99
2022-11-25T01:16:52.569Z,65.21
2022-11-25T01:19:20.924Z,68.97
2022-11-25T01:21:48.829Z,66.66
2022-11-25T01:24:17.299Z,61.84
2022-11-25T01:26:46.011Z,58.26
2022-11-25T01:29:17.009Z,55.56
2022-11-25T01:31:46.177Z,56.30
2022-11-25T01:34:25.068Z,57.16
2022-11-25T01:36:52.838Z,59.04
2022-11-25T01:39:25.648Z,60.30
2022-11-25T01:41:56.312Z,60.56
2022-11-25T01:44:27.648Z,63.97
2022-11-25T01:47:18.765Z,69.33
2022-11-25T01:49:55.626Z,66.28
2022-11-25T01:52:33.965Z,63.17
2022-11-25T01:55:22.443Z,60.37
2022-11-25T01:57:54.433Z,57.26
2022-11-25T02:00:25.588Z,56.81
2022-11-25T02:02:55.502Z,57.74
2022-11-25T02:05:34.595Z,58.69
2022-11-25T02:08:03.591Z,60.36
2022-11-25T02:10:34.570Z,61.29
2022-11-25T02:13:03.689Z,64.72
2022-11-25T02:15:34.920Z,68.45
2022-11-25T02:18:05.603Z,64.41
2022-11-25T02:20:33.665Z,61.30
2022-11-25T02:27:01.260Z,56.04
2022-11-25T02:29:28.145Z,56.88
2022-11-25T02:31:54.510Z,58.29
2022-11-25T02:34:20.984Z,59.47
2022-11-25T02:36:48.918Z,59.62
2022-11-25T02:39:18.122Z,60.46
2022-11-25T02:41:51.719Z,61.36
2022-11-25T02:44:18.254Z,65.95
2022-11-25T02:46:44.749Z,70.36
2022-11-25T02:49:11.368Z,65.09
2022-11-25T02:51:40.886Z,60.12
2022-11-25T02:54:09.300Z,55.67
2022-11-25T02:56:37.375Z,55.06
2022-11-25T02:59:04.265Z,56.27
2022-11-25T03:01:30.920Z,58.15
2022-11-25T03:03:57.887Z,59.30
2022-11-25T03:06:28.373Z,60.17
2022-11-25T03:08:55.298Z,61.34
2022-11-25T03:11:41.971Z,66.58
2022-11-25T03:14:08.486Z,68.52
2022-11-25T03:16:35.083Z,61.53
2022-11-25T03:19:03.883Z,55.81
2022-11-25T03:21:30.677Z,54.50
2022-11-25T03:23:57.123Z,55.73
2022-11-25T03:26:25.291Z,56.89
2022-11-25T03:28:52.146Z,59.20
2022-11-25T03:31:18.808Z,60.82
2022-11-25T03:33:45.219Z,61.50
2022-11-25T03:36:11.930Z,66.21
2022-11-25T03:38:38.344Z,69.02
2022-11-25T03:41:04.977Z,65.24
2022-11-25T03:43:32.441Z,61.41
2022-11-25T03:45:58.792Z,60.36
2022-11-25T03:48:25.125Z,55.15
2022-11-25T03:50:51.691Z,53.18
2022-11-25T03:53:18.006Z,54.55
2022-11-25T03:55:47.277Z,56.58
2022-11-25T03:58:13.825Z,58.16
2022-11-25T04:00:40.206Z,59.07
2022-11-25T04:03:06.616Z,59.57
2022-11-25T04:05:33.003Z,60.73
2022-11-25T04:08:02.766Z,61.97
2022-11-25T04:10:29.863Z,67.61
2022-11-25T04:12:58.229Z,69.69
2022-11-25T04:15:30.760Z,61.85
2022-11-25T04:17:57.683Z,55.10
2022-11-25T04:20:24.401Z,53.01
2022-11-25T04:26:24.612Z,57.34
2022-11-25T04:28:53.099Z,58.90
2022-11-25T04:31:21.377Z,60.18
2022-11-25T04:33:52.585Z,60.92
2022-11-25T04:36:21.030Z,61.41
2022-11-25T04:38:49.039Z,66.26
2022-11-25T04:41:18.423Z,69.96
2022-11-25T04:43:46.377Z,63.75
2022-11-25T04:46:17.963Z,56.57
2022-11-25T04:48:50.730Z,53.74
2022-11-25T04:51:18.799Z,54.79
2022-11-25T04:53:47.566Z,56.71
2022-11-25T04:56:18.591Z,58.33
2022-11-25T04:59:05.729Z,59.41
2022-11-25T05:01:33.954Z,60.73
2022-11-25T05:04:10.207Z,62.12
2022-11-25T05:06:37.957Z,66.95
2022-11-25T05:09:06.576Z,69.63
2022-11-25T05:11:35.534Z,65.15
2022-11-25T05:14:03.552Z,59.01
2022-11-25T05:16:31.876Z,54.57
2022-11-25T05:19:00.030Z,54.38
2022-11-25T05:21:28.005Z,56.03
2022-11-25T05:23:56.132Z,57.99
2022-11-25T05:26:24.260Z,58.83
2022-11-25T05:28:54.576Z,60.06
2022-11-25T05:31:22.340Z,61.47
2022-11-25T05:33:50.824Z,65.56
2022-11-25T05:36:19.022Z,69.77
2022-11-25T05:38:48.317Z,64.13
2022-11-25T05:41:21.443Z,59.48
2022-11-25T05:43:49.321Z,55.78
2022-11-25T05:46:17.882Z,55.72
2022-11-25T05:48:53.310Z,57.27
2022-11-25T05:51:22.369Z,58.89
2022-11-25T05:53:51.000Z,59.96
2022-11-25T05:56:19.334Z,60.80
2022-11-25T05:59:22.525Z,61.80
2022-11-25T06:02:05.012Z,67.74
2022-11-25T06:04:33.592Z,68.76
2022-11-25T06:07:01.771Z,65.31
2022-11-25T06:09:29.939Z,62.28
2022-11-25T06:11:57.925Z,60.58
2022-11-25T06:14:25.949Z,58.75
2022-11-25T06:16:53.766Z,55.60
2022-11-25T06:19:29.048Z,56.18
2022-11-25T06:21:56.723Z,57.54
2022-11-25T06:24:25.618Z,58.90
2022-11-25T06:26:57.124Z,59.89
2022-11-25T06:29:25.016Z,60.94
2022-11-25T06:31:52.793Z,65.25
2022-11-25T06:34:32.454Z,67.43
2022-11-25T06:37:01.164Z,64.25
2022-11-25T06:39:28.844Z,61.58
2022-11-25T06:41:56.708Z,59.83
2022-11-25T06:44:24.388Z,56.77
2022-11-25T06:46:52.239Z,55.86
2022-11-25T06:49:19.949Z,57.01
2022-11-25T06:51:49.726Z,57.86
2022-11-25T06:54:17.332Z,59.37
2022-11-25T06:56:45.058Z,59.67
2022-11-25T06:59:12.845Z,61.13
2022-11-25T07:01:40.698Z,66.19
2022-11-25T07:04:08.451Z,69.19
2022-11-25T07:06:36.166Z,63.50
2022-11-25T07:09:04.679Z,58.12
2022-11-25T07:11:35.317Z,55.32
2022-11-25T07:14:06.351Z,56.40
2022-11-25T07:16:34.223Z,57.91
2022-11-25T07:19:03.183Z,59.38
2022-11-25T07:21:32.745Z,60.70
2022-11-25T07:24:02.687Z,61.80
2022-11-25T07:26:33.287Z,66.27
2022-11-25T07:29:04.264Z,68.66
2022-11-25T07:31:34.869Z,63.63
2022-11-25T07:34:08.199Z,59.74
2022-11-25T07:36:36.524Z,55.20
2022-11-25T07:39:07.877Z,54.99
2022-11-25T07:41:35.625Z,56.69
2022-11-25T07:44:05.772Z,57.90
2022-11-25T07:46:47.578Z,58.69
2022-11-25T07:49:18.517Z,59.76
2022-11-25T07:51:48.942Z,61.77
2022-11-25T07:54:17.466Z,65.98
2022-11-25T07:56:45.653Z,68.85
2022-11-25T07:59:15.692Z,65.37
2022-11-25T08:01:44.270Z,62.77
2022-11-25T08:04:19.494Z,56.68
2022-11-25T08:06:49.057Z,54.40
2022-11-25T08:09:19.824Z,54.85
2022-11-25T08:11:49.109Z,56.37
2022-11-25T08:14:17.023Z,57.76
2022-11-25T08:16:45.195Z,59.27
2022-11-25T08:19:15.714Z,59.76
2022-11-25T08:21:43.941Z,61.28
2022-11-25T08:24:20.678Z,64.50
2022-11-25T08:26:48.718Z,67.97
2022-11-25T08:29:18.212Z,65.30
2022-11-25T08:31:46.352Z,60.66
2022-11-25T08:34:23.436Z,54.84
2022-11-25T08:36:52.698Z,53.35
2022-11-25T08:39:50.690Z,55.08
2022-11-25T08:42:09.426Z,56.65
2022-11-25T08:44:37.394Z,57.82
2022-11-25T08:47:05.226Z,59.29
2022-11-25T08:49:39.148Z,60.63
2022-11-25T08:52:09.888Z,61.66
2022-11-25T08:54:38.158Z,66.44
2022-11-25T08:57:06.176Z,69.53
2022-11-25T08:59:34.071Z,62.00
2022-11-25T09:02:02.376Z,56.45
2022-11-25T09:04:30.132Z,54.86
2022-11-25T09:06:57.881Z,56.48
2022-11-25T09:09:26.115Z,57.67
2022-11-25T09:11:54.449Z,58.64
2022-11-25T09:14:22.407Z,59.97
2022-11-25T09:16:50.288Z,61.70
2022-11-25T09:19:17.944Z,67.07
2022-11-25T09:21:45.628Z,69.04
2022-11-25T09:27:57.482Z,58.10
2022-11-25T09:30:26.350Z,57.07
2022-11-25T09:32:55.485Z,58.11
2022-11-25T09:35:25.183Z,59.60
2022-11-25T09:37:53.249Z,60.50
2022-11-25T09:40:40.645Z,64.07
2022-11-25T09:43:55.779Z,68.51
2022-11-25T09:46:42.001Z,61.93
2022-11-25T09:49:28.521Z,60.07
2022-11-25T09:52:10.784Z,54.60
2022-11-25T09:54:49.360Z,53.18
2022-11-25T09:57:48.288Z,54.32
2022-11-25T10:00:20.077Z,56.29
2022-11-25T10:02:51.007Z,58.67
2022-11-25T10:05:24.964Z,59.77
2022-11-25T10:07:56.588Z,61.00
2022-11-25T10:10:29.034Z,64.69
2022-11-25T10:12:58.743Z,67.29
2022-11-25T10:15:45.434Z,65.06
2022-11-25T10:18:21.399Z,63.77
2022-11-25T10:20:50.717Z,62.46
2022-11-25T10:23:28.540Z,61.44
2022-11-25T10:26:01.416Z,61.25
2022-11-25T10:28:34.296Z,55.48
2022-11-25T10:31:02.006Z,53.39
2022-11-25T10:33:44.025Z,54.91
2022-11-25T10:36:14.906Z,56.67
2022-11-25T10:39:00.925Z,57.91
2022-11-25T10:41:35.626Z,59.77
2022-11-25T10:44:04.146Z,60.79
2022-11-25T10:50:05.863Z,67.53
2022-11-25T10:52:46.780Z,66.15
2022-11-25T10:55:20.725Z,65.83
2022-11-25T10:57:48.437Z,61.34
2022-11-25T11:00:32.711Z,55.22
2022-11-25T11:03:14.780Z,53.34
2022-11-25T11:05:51.364Z,55.21
2022-11-25T11:08:23.002Z,56.53
2022-11-25T11:11:23.388Z,59.15
2022-11-25T11:14:18.999Z,59.64
2022-11-25T11:16:55.649Z,60.44
2022-11-25T11:19:27.332Z,65.52
2022-11-25T11:21:56.422Z,68.37
2022-11-25T11:24:35.815Z,64.37
2022-11-25T11:27:24.827Z,61.16
2022-11-25T11:30:23.913Z,59.71
2022-11-25T11:33:04.629Z,56.11
2022-11-25T11:36:02.170Z,56.50
2022-11-25T11:38:36.872Z,57.64
2022-11-25T11:41:30.190Z,60.00
2022-11-25T11:44:07.779Z,61.56
2022-11-25T11:46:40.667Z,67.53
2022-11-25T11:49:45.584Z,66.36
2022-11-25T11:52:34.647Z,61.61
2022-11-25T11:55:25.488Z,58.06
2022-11-25T11:58:11.411Z,55.86
2022-11-25T12:01:05.626Z,57.23
2022-11-25T12:03:41.976Z,57.97
2022-11-25T12:06:12.055Z,59.94
2022-11-25T12:08:52.736Z,61.09
2022-11-25T12:11:25.403Z,65.52
2022-11-25T12:14:05.731Z,68.80
2022-11-25T12:16:40.877Z,64.11
2022-11-25T12:19:20.651Z,61.26
2022-11-25T12:28:55.254Z,58.31
2022-11-25T12:31:44.248Z,59.29
2022-11-25T12:34:32.177Z,60.13
2022-11-25T12:37:15.384Z,61.44
2022-11-25T12:39:57.075Z,65.95
2022-11-25T12:42:26.335Z,68.18
2022-11-25T12:45:11.278Z,64.69
2022-11-25T12:47:41.567Z,59.53
2022-11-25T12:50:17.031Z,55.04
2022-11-25T12:52:50.746Z,55.28
2022-11-25T12:55:21.710Z,56.69
2022-11-25T12:58:08.360Z,57.85
2022-11-25T13:00:54.683Z,59.08
2022-11-25T13:03:44.215Z,60.84
2022-11-25T13:06:38.768Z,61.66
2022-11-25T13:09:31.451Z,68.97
2022-11-25T13:12:18.003Z,65.81
2022-11-25T13:15:19.237Z,60.63
2022-11-25T13:17:50.464Z,54.25
2022-11-25T13:20:27.369Z,53.43
2022-11-25T13:26:36.199Z,57.10
2022-11-25T13:29:27.008Z,58.23
2022-11-25T13:32:05.159Z,59.52
2022-11-25T13:34:35.529Z,61.16
2022-11-25T13:37:40.656Z,67.01
2022-11-25T13:40:41.121Z,66.02
2022-11-25T13:43:21.487Z,62.18
2022-11-25T13:45:49.851Z,59.93
2022-11-25T13:48:24.843Z,57.13
2022-11-25T13:51:22.338Z,56.61
2022-11-25T13:53:54.628Z,57.98
2022-11-25T13:56:30.755Z,59.49
2022-11-25T13:59:19.862Z,60.21
2022-11-25T14:01:47.686Z,60.27
2022-11-25T14:04:16.719Z,61.95
2022-11-25T14:06:52.599Z,67.42
2022-11-25T14:09:26.098Z,69.18
2022-11-25T14:12:02.927Z,65.07
2022-11-25T14:14:46.578Z,62.43
2022-11-25T14:17:42.134Z,61.17
2022-11-25T14:20:39.096Z,59.08
2022-11-25T14:23:24.558Z,56.69
2022-11-25T14:25:57.758Z,57.83
2022-11-25T14:28:44.449Z,59.20
2022-11-25T14:31:17.763Z,60.17
2022-11-25T14:33:51.742Z,61.47
2022-11-25T14:36:24.806Z,64.71
2022-11-25T14:38:59.882Z,67.40
2022-11-25T14:41:44.190Z,66.25
2022-11-25T14:44:21.722Z,65.02
2022-11-25T14:46:54.644Z,63.68
2022-11-25T14:49:45.180Z,62.26
2022-11-25T14:52:15.683Z,61.53
2022-11-25T14:54:44.626Z,60.64
2022-11-25T14:57:12.780Z,57.68
2022-11-25T14:59:45.170Z,57.20
2022-11-25T15:02:31.468Z,58.51
2022-11-25T15:05:19.541Z,60.92
2022-11-25T15:08:13.258Z,65.20
2022-11-25T15:10:53.983Z,66.53
2022-11-25T15:13:37.711Z,62.64
2022-11-25T15:16:11.438Z,59.47
2022-11-25T15:19:04.001Z,56.29
2022-11-25T15:21:48.299Z,56.61
2022-11-25T15:27:55.761Z,60.82
2022-11-25T15:30:27.040Z,61.66
2022-11-25T15:32:55.886Z,65.83
2022-11-25T15:35:26.221Z,67.76
2022-11-25T15:37:56.611Z,65.25
2022-11-25T15:40:40.687Z,62.45
2022-11-25T15:43:23.491Z,60.42
2022-11-25T15:45:57.539Z,59.20
2022-11-25T15:48:31.146Z,56.85
2022-11-25T15:51:05.593Z,57.49
2022-11-25T15:53:37.047Z,58.45
2022-11-25T15:56:07.323Z,59.82
2022-11-25T15:58:35.314Z,60.44
2022-11-25T16:01:06.192Z,61.76
2022-11-25T16:03:35.531Z,65.18
2022-11-25T16:06:19.848Z,68.28
2022-11-25T16:08:58.719Z,66.17
2022-11-25T16:11:33.753Z,64.57
2022-11-25T16:14:34.651Z,64.30
2022-11-25T16:17:09.606Z,62.82
2022-11-25T16:19:44.403Z,61.24
2022-11-25T16:22:16.268Z,61.28
2022-11-25T16:24:57.312Z,59.41
2022-11-25T16:27:29.396Z,55.95
2022-11-25T16:30:06.450Z,56.54
2022-11-25T16:32:34.618Z,57.92
2022-11-25T16:35:18.251Z,59.62
2022-11-25T16:37:49.228Z,61.11
2022-11-25T16:40:18.707Z,64.44
2022-11-25T16:42:48.373Z,66.58
2022-11-25T16:45:26.396Z,64.65
2022-11-25T16:47:55.234Z,62.96
2022-11-25T16:50:23.820Z,61.81
2022-11-25T16:52:51.558Z,61.41
2022-11-25T16:55:19.279Z,58.76
2022-11-25T16:57:47.152Z,56.01
2022-11-25T17:00:17.149Z,57.17
2022-11-25T17:02:45.357Z,59.09
2022-11-25T17:05:19.271Z,60.81
2022-11-25T17:07:47.925Z,64.74
2022-11-25T17:10:16.458Z,66.79
2022-11-25T17:12:45.363Z,65.31
2022-11-25T17:15:19.955Z,63.32
2022-11-25T17:17:49.136Z,61.69
2022-11-25T17:20:21.697Z,60.06
2022-11-25T17:22:49.959Z,58.00
2022-11-25T17:25:18.142Z,56.08
2022-11-25T17:27:46.263Z,57.57
2022-11-25T17:30:27.346Z,59.21
2022-11-25T17:33:03.651Z,59.43
2022-11-25T17:35:31.664Z,60.63
2022-11-25T17:38:01.022Z,61.79
2022-11-25T17:40:28.884Z,66.13
2022-11-25T17:42:57.154Z,69.48
2022-11-25T17:45:25.004Z,67.28
2022-11-25T17:47:52.747Z,63.86
2022-11-25T17:50:23.068Z,61.00
2022-11-25T17:52:51.473Z,58.90
2022-11-25T17:55:21.968Z,57.62
2022-11-25T17:57:49.896Z,59.00
2022-11-25T18:00:21.415Z,60.75
2022-11-25T18:02:49.720Z,61.88
2022-11-25T18:05:20.346Z,65.16
2022-11-25T18:07:49.171Z,68.06
2022-11-25T18:10:19.872Z,66.66
2022-11-25T18:12:49.824Z,63.51
2022-11-25T18:15:22.467Z,61.81
2022-11-25T18:17:53.536Z,60.43
2022-11-25T18:20:26.228Z,59.03
2022-11-25T18:22:54.190Z,56.46
2022-11-25T18:25:29.293Z,57.34
2022-11-25T18:27:58.090Z,59.26
2022-11-25T18:30:31.085Z,60.79
2022-11-25T18:33:00.759Z,65.68
2022-11-25T18:35:35.810Z,66.34
2022-11-25T18:38:05.188Z,63.20
2022-11-25T18:40:35.126Z,62.06
2022-11-25T18:43:04.670Z,60.95
2022-11-25T18:45:37.683Z,60.24
2022-11-25T18:48:16.158Z,60.33
2022-11-25T18:50:45.106Z,57.65
2022-11-25T18:53:13.477Z,54.24
2022-11-25T18:55:41.975Z,55.71
2022-11-25T18:58:17.207Z,58.14
2022-11-25T19:00:50.171Z,59.47
2022-11-25T19:03:23.473Z,60.37
2022-11-25T19:05:54.184Z,65.18
2022-11-25T19:08:21.929Z,69.58
2022-11-25T19:10:50.791Z,64.42
2022-11-25T19:13:31.768Z,59.96
2022-11-25T19:16:06.397Z,56.32
2022-11-25T19:18:35.201Z,57.20
2022-11-25T19:21:03.294Z,59.46
2022-11-25T19:27:01.974Z,68.43
2022-11-25T19:29:29.624Z,67.12
2022-11-25T19:31:58.431Z,62.43
2022-11-25T19:34:38.533Z,58.07
2022-11-25T19:37:06.443Z,54.35
2022-11-25T19:39:36.390Z,55.90
2022-11-25T19:42:04.154Z,58.13
2022-11-25T19:44:31.919Z,59.70
2022-11-25T19:47:14.720Z,60.92
2022-11-25T19:49:44.103Z,65.25
2022-11-25T19:52:18.024Z,67.04
2022-11-25T19:54:48.373Z,65.39
2022-11-25T19:57:22.132Z,62.43
2022-11-25T19:59:50.150Z,58.00
2022-11-25T20:02:22.837Z,55.35
2022-11-25T20:04:54.333Z,56.90
2022-11-25T20:07:22.301Z,58.61
2022-11-25T20:09:51.566Z,59.50
2022-11-25T20:12:20.158Z,61.73
2022-11-25T20:14:48.835Z,66.48
2022-11-25T20:17:32.790Z,67.46
2022-11-25T20:20:11.642Z,65.00
2022-11-25T20:22:44.265Z,64.51
2022-11-25T20:25:14.797Z,63.66
2022-11-25T20:27:42.617Z,63.22
2022-11-25T20:30:17.171Z,62.88
2022-11-25T20:32:44.964Z,61.01
2022-11-25T20:35:13.382Z,59.79
2022-11-25T20:37:53.832Z,56.76
2022-11-25T20:40:42.124Z,56.45
2022-11-25T20:43:47.422Z,58.12
2022-11-25T20:46:23.914Z,59.83
2022-11-25T20:48:54.509Z,60.99
2022-11-25T20:51:23.817Z,65.16
2022-11-25T20:54:03.329Z,65.91
2022-11-25T20:56:31.038Z,65.58
2022-11-25T20:58:58.728Z,65.31
2022-11-25T21:01:26.704Z,63.78
2022-11-25T21:03:54.580Z,61.56
2022-11-25T21:06:25.675Z,56.33
2022-11-25T21:08:55.648Z,55.72
2022-11-25T21:11:23.434Z,57.14
2022-11-25T21:13:52.172Z,58.87
2022-11-25T21:16:20.212Z,60.48
2022-11-25T21:18:48.017Z,61.08
2022-11-25T21:21:28.716Z,64.40
2022-11-25T21:23:56.853Z,66.60
2022-11-25T21:26:26.581Z,65.59
2022-11-25T21:28:54.748Z,64.84
2022-11-25T21:31:24.789Z,64.91
2022-11-25T21:33:57.610Z,62.24
2022-11-25T21:36:31.224Z,57.89
2022-11-25T21:39:09.089Z,56.76
2022-11-25T21:41:36.931Z,57.96
2022-11-25T21:44:06.261Z,59.07
2022-11-25T21:46:34.186Z,60.77
2022-11-25T21:49:02.124Z,63.72
2022-11-25T21:51:29.849Z,66.30
2022-11-25T21:53:57.502Z,65.83
2022-11-25T21:56:32.082Z,63.95
2022-11-25T21:59:01.578Z,62.76
2022-11-25T22:01:29.859Z,61.61
2022-11-25T22:03:58.122Z,60.97
2022-11-25T22:06:29.138Z,60.45
2022-11-25T22:08:57.442Z,60.27
2022-11-25T22:11:33.715Z,59.80
2022-11-25T22:14:06.614Z,59.74
2022-11-25T22:16:36.663Z,58.69
2022-11-25T22:19:04.541Z,58.53
2022-11-25T22:21:32.408Z,59.70
2022-11-25T22:24:00.162Z,61.23
2022-11-25T22:26:32.763Z,64.79
2022-11-25T22:29:01.917Z,68.40
2022-11-25T22:31:29.712Z,67.46
2022-11-25T22:33:57.736Z,64.48
2022-11-25T22:36:28.300Z,61.78
2022-11-25T22:38:58.987Z,60.10
2022-11-25T22:41:27.114Z,57.48
2022-11-25T22:43:54.941Z,56.63
2022-11-25T22:46:22.791Z,58.03
2022-11-25T22:48:50.603Z,59.70
2022-11-25T22:51:24.801Z,61.05
2022-11-25T22:53:52.640Z,64.17
2022-11-25T22:56:20.478Z,66.94
2022-11-25T22:58:48.677Z,64.55
2022-11-25T23:01:17.202Z,62.63
2022-11-25T23:03:45.187Z,61.28
2022-11-25T23:06:13.911Z,60.08
2022-11-25T23:08:41.778Z,58.37
2022-11-25T23:11:17.378Z,57.45
2022-11-25T23:13:45.138Z,58.78
2022-11-25T23:16:12.867Z,60.03
2022-11-25T23:18:44.784Z,61.15
2022-11-25T23:21:21.394Z,65.93
2022-11-25T23:23:50.260Z,67.02
2022-11-25T23:26:18.153Z,63.85
2022-11-25T23:28:45.877Z,61.14
2022-11-25T23:31:15.371Z,59.45
2022-11-25T23:33:48.506Z,57.08
2022-11-25T23:36:47.364Z,57.83
2022-11-25T23:39:20.095Z,59.70
2022-11-25T23:41:48.856Z,60.78
2022-11-25T23:44:28.627Z,64.80
2022-11-25T23:47:04.271Z,66.45
2022-11-25T23:49:44.102Z,64.05
2022-11-25T23:52:23.097Z,61.39
2022-11-25T23:54:52.401Z,57.29
2022-11-25T23:57:26.827Z,56.72
2022-11-25T23:59:54.732Z,58.30
